sensor_id;sensor_type;location;lat;lon;timestamp;P1;durP1;ratioP1;P2;durP2;ratioP2
78365;SDS011;67641;59.864;30.464;2023-11-21T00:01:32;2.97;;;1.40;;
78365;SDS011;67641;59.864;30.464;2023-11-21T00:03:58;3.45;;;1.05;;
78365;SDS011;67641;59.864;30.464;2023-11-21T00:06:25;1.95;;;0.85;;
78365;SDS011;67641;59.864;30.464;2023-11-21T00:08:51;5.18;;;0.98;;
78365;SDS011;67641;59.864;30.464;2023-11-21T00:11:18;6.03;;;1.10;;
78365;SDS011;67641;59.864;30.464;2023-11-21T00:13:44;11.43;;;1.42;;
78365;SDS011;67641;59.864;30.464;2023-11-21T00:16:11;3.20;;;1.17;;
78365;SDS011;67641;59.864;30.464;2023-11-21T00:18:38;6.70;;;1.40;;
78365;SDS011;67641;59.864;30.464;2023-11-21T00:21:04;4.50;;;1.10;;
78365;SDS011;67641;59.864;30.464;2023-11-21T00:23:31;3.55;;;1.00;;
78365;SDS011;67641;59.864;30.464;2023-11-21T00:25:58;6.10;;;0.93;;
78365;SDS011;67641;59.864;30.464;2023-11-21T00:28:24;4.90;;;1.27;;
78365;SDS011;67641;59.864;30.464;2023-11-21T00:30:52;3.13;;;1.25;;
78365;SDS011;67641;59.864;30.464;2023-11-21T00:33:19;3.45;;;1.10;;
78365;SDS011;67641;59.864;30.464;2023-11-21T00:35:46;3.30;;;1.23;;
78365;SDS011;67641;59.864;30.464;2023-11-21T00:38:12;4.47;;;0.95;;
78365;SDS011;67641;59.864;30.464;2023-11-21T00:40:39;2.80;;;1.40;;
78365;SDS011;67641;59.864;30.464;2023-11-21T00:43:05;6.95;;;1.30;;
78365;SDS011;67641;59.864;30.464;2023-11-21T00:45:32;4.20;;;1.42;;
78365;SDS011;67641;59.864;30.464;2023-11-21T00:47:58;5.72;;;1.20;;
78365;SDS011;67641;59.864;30.464;2023-11-21T00:50:25;4.85;;;1.25;;
78365;SDS011;67641;59.864;30.464;2023-11-21T00:52:51;4.20;;;1.48;;
78365;SDS011;67641;59.864;30.464;2023-11-21T00:55:18;7.18;;;1.40;;
78365;SDS011;67641;59.864;30.464;2023-11-21T00:57:44;2.28;;;1.00;;
78365;SDS011;67641;59.864;30.464;2023-11-21T01:00:10;5.60;;;1.27;;
78365;SDS011;67641;59.864;30.464;2023-11-21T01:02:45;4.85;;;1.35;;
78365;SDS011;67641;59.864;30.464;2023-11-21T01:05:13;2.67;;;1.00;;
78365;SDS011;67641;59.864;30.464;2023-11-21T01:07:39;3.28;;;1.20;;
78365;SDS011;67641;59.864;30.464;2023-11-21T01:10:06;3.67;;;1.15;;
78365;SDS011;67641;59.864;30.464;2023-11-21T01:12:37;2.20;;;1.10;;
78365;SDS011;67641;59.864;30.464;2023-11-21T01:15:04;4.40;;;0.88;;
78365;SDS011;67641;59.864;30.464;2023-11-21T01:17:34;4.43;;;1.30;;
78365;SDS011;67641;59.864;30.464;2023-11-21T01:20:02;2.45;;;1.17;;
78365;SDS011;67641;59.864;30.464;2023-11-21T01:22:32;4.00;;;1.45;;
78365;SDS011;67641;59.864;30.464;2023-11-21T01:24:58;3.90;;;1.10;;
78365;SDS011;67641;59.864;30.464;2023-11-21T01:27:24;4.72;;;1.10;;
78365;SDS011;67641;59.864;30.464;2023-11-21T01:29:51;4.25;;;1.20;;
78365;SDS011;67641;59.864;30.464;2023-11-21T01:32:19;3.90;;;1.10;;
78365;SDS011;67641;59.864;30.464;2023-11-21T01:34:45;3.15;;;1.08;;
78365;SDS011;67641;59.864;30.464;2023-11-21T01:37:13;6.30;;;1.20;;
78365;SDS011;67641;59.864;30.464;2023-11-21T01:39:39;2.60;;;1.20;;
78365;SDS011;67641;59.864;30.464;2023-11-21T01:42:06;2.85;;;1.27;;
78365;SDS011;67641;59.864;30.464;2023-11-21T01:44:33;2.65;;;1.40;;
78365;SDS011;67641;59.864;30.464;2023-11-21T01:46:59;3.63;;;1.40;;
78365;SDS011;67641;59.864;30.464;2023-11-21T01:49:33;3.92;;;1.02;;
78365;SDS011;67641;59.864;30.464;2023-11-21T01:52:01;4.50;;;1.15;;
78365;SDS011;67641;59.864;30.464;2023-11-21T01:54:28;5.03;;;1.40;;
78365;SDS011;67641;59.864;30.464;2023-11-21T01:59:34;2.92;;;1.35;;
78365;SDS011;67641;59.864;30.464;2023-11-21T02:02:05;3.03;;;1.10;;
78365;SDS011;67641;59.864;30.464;2023-11-21T02:04:33;4.53;;;1.30;;
78365;SDS011;67641;59.864;30.464;2023-11-21T02:07:00;4.38;;;1.17;;
78365;SDS011;67641;59.864;30.464;2023-11-21T02:09:27;4.82;;;1.20;;
78365;SDS011;67641;59.864;30.464;2023-11-21T02:11:55;3.55;;;1.50;;
78365;SDS011;67641;59.864;30.464;2023-11-21T02:14:22;4.80;;;1.58;;
78365;SDS011;67641;59.864;30.464;2023-11-21T02:16:50;3.50;;;1.30;;
78365;SDS011;67641;59.864;30.464;2023-11-21T02:19:18;3.60;;;1.20;;
78365;SDS011;67641;59.864;30.464;2023-11-21T02:21:49;6.28;;;1.40;;
78365;SDS011;67641;59.864;30.464;2023-11-21T02:24:18;3.88;;;1.23;;
78365;SDS011;67641;59.864;30.464;2023-11-21T02:26:46;3.42;;;1.40;;
78365;SDS011;67641;59.864;30.464;2023-11-21T02:29:13;5.10;;;1.38;;
78365;SDS011;67641;59.864;30.464;2023-11-21T02:31:42;6.25;;;1.25;;
78365;SDS011;67641;59.864;30.464;2023-11-21T02:34:14;2.40;;;1.00;;
78365;SDS011;67641;59.864;30.464;2023-11-21T02:36:42;4.28;;;1.23;;
78365;SDS011;67641;59.864;30.464;2023-11-21T02:39:10;3.45;;;1.27;;
78365;SDS011;67641;59.864;30.464;2023-11-21T02:41:37;4.57;;;1.40;;
78365;SDS011;67641;59.864;30.464;2023-11-21T02:44:05;4.82;;;1.40;;
78365;SDS011;67641;59.864;30.464;2023-11-21T02:46:32;9.25;;;1.65;;
78365;SDS011;67641;59.864;30.464;2023-11-21T02:49:00;3.65;;;1.48;;
78365;SDS011;67641;59.864;30.464;2023-11-21T02:51:27;7.90;;;1.40;;
78365;SDS011;67641;59.864;30.464;2023-11-21T02:53:54;3.35;;;1.25;;
78365;SDS011;67641;59.864;30.464;2023-11-21T02:56:25;4.10;;;1.40;;
78365;SDS011;67641;59.864;30.464;2023-11-21T02:58:52;6.13;;;1.60;;
78365;SDS011;67641;59.864;30.464;2023-11-21T03:01:21;4.95;;;1.42;;
78365;SDS011;67641;59.864;30.464;2023-11-21T03:03:49;6.22;;;1.60;;
78365;SDS011;67641;59.864;30.464;2023-11-21T03:08:45;9.88;;;1.70;;
78365;SDS011;67641;59.864;30.464;2023-11-21T03:11:13;6.18;;;1.13;;
78365;SDS011;67641;59.864;30.464;2023-11-21T03:13:40;5.32;;;1.67;;
78365;SDS011;67641;59.864;30.464;2023-11-21T03:16:10;9.63;;;1.60;;
78365;SDS011;67641;59.864;30.464;2023-11-21T03:18:38;6.53;;;1.30;;
78365;SDS011;67641;59.864;30.464;2023-11-21T03:21:05;6.50;;;1.33;;
78365;SDS011;67641;59.864;30.464;2023-11-21T03:23:35;7.85;;;1.77;;
78365;SDS011;67641;59.864;30.464;2023-11-21T03:26:02;5.53;;;1.80;;
78365;SDS011;67641;59.864;30.464;2023-11-21T03:28:29;4.28;;;1.70;;
78365;SDS011;67641;59.864;30.464;2023-11-21T03:30:56;6.20;;;1.52;;
78365;SDS011;67641;59.864;30.464;2023-11-21T03:33:22;4.95;;;1.88;;
78365;SDS011;67641;59.864;30.464;2023-11-21T03:35:49;7.97;;;1.80;;
78365;SDS011;67641;59.864;30.464;2023-11-21T03:38:15;6.43;;;1.80;;
78365;SDS011;67641;59.864;30.464;2023-11-21T03:40:42;8.85;;;1.77;;
78365;SDS011;67641;59.864;30.464;2023-11-21T03:43:09;5.55;;;2.00;;
78365;SDS011;67641;59.864;30.464;2023-11-21T03:45:35;5.90;;;1.65;;
78365;SDS011;67641;59.864;30.464;2023-11-21T03:48:02;9.38;;;1.90;;
78365;SDS011;67641;59.864;30.464;2023-11-21T03:50:29;5.15;;;1.77;;
78365;SDS011;67641;59.864;30.464;2023-11-21T03:52:55;5.88;;;1.75;;
78365;SDS011;67641;59.864;30.464;2023-11-21T03:55:22;4.30;;;1.90;;
78365;SDS011;67641;59.864;30.464;2023-11-21T03:57:51;10.68;;;1.90;;
78365;SDS011;67641;59.864;30.464;2023-11-21T04:00:17;5.53;;;1.67;;
78365;SDS011;67641;59.864;30.464;2023-11-21T04:02:46;9.13;;;2.42;;
78365;SDS011;67641;59.864;30.464;2023-11-21T04:05:12;8.07;;;2.20;;
78365;SDS011;67641;59.864;30.464;2023-11-21T04:07:39;8.43;;;2.08;;
78365;SDS011;67641;59.864;30.464;2023-11-21T04:10:06;9.93;;;2.65;;
78365;SDS011;67641;59.864;30.464;2023-11-21T04:12:38;8.10;;;2.08;;
78365;SDS011;67641;59.864;30.464;2023-11-21T04:15:05;12.05;;;2.00;;
78365;SDS011;67641;59.864;30.464;2023-11-21T04:17:34;6.82;;;2.05;;
78365;SDS011;67641;59.864;30.464;2023-11-21T04:20:03;8.00;;;2.25;;
78365;SDS011;67641;59.864;30.464;2023-11-21T04:22:42;7.50;;;2.00;;
78365;SDS011;67641;59.864;30.464;2023-11-21T04:25:10;9.93;;;2.10;;
78365;SDS011;67641;59.864;30.464;2023-11-21T04:27:41;8.82;;;2.00;;
78365;SDS011;67641;59.864;30.464;2023-11-21T04:30:11;12.80;;;2.92;;
78365;SDS011;67641;59.864;30.464;2023-11-21T04:32:39;10.95;;;2.40;;
78365;SDS011;67641;59.864;30.464;2023-11-21T04:35:05;13.88;;;2.40;;
78365;SDS011;67641;59.864;30.464;2023-11-21T04:37:32;11.13;;;2.22;;
78365;SDS011;67641;59.864;30.464;2023-11-21T04:39:59;11.13;;;2.75;;
78365;SDS011;67641;59.864;30.464;2023-11-21T04:42:25;11.75;;;2.70;;
78365;SDS011;67641;59.864;30.464;2023-11-21T04:44:54;9.15;;;2.53;;
78365;SDS011;67641;59.864;30.464;2023-11-21T04:47:21;8.88;;;2.90;;
78365;SDS011;67641;59.864;30.464;2023-11-21T04:49:47;9.50;;;2.35;;
78365;SDS011;67641;59.864;30.464;2023-11-21T04:52:14;11.23;;;3.05;;
78365;SDS011;67641;59.864;30.464;2023-11-21T04:54:42;7.85;;;3.17;;
78365;SDS011;67641;59.864;30.464;2023-11-21T04:57:08;13.63;;;2.78;;
78365;SDS011;67641;59.864;30.464;2023-11-21T04:59:35;14.52;;;2.97;;
78365;SDS011;67641;59.864;30.464;2023-11-21T05:02:01;15.85;;;2.97;;
78365;SDS011;67641;59.864;30.464;2023-11-21T05:04:28;11.15;;;3.70;;
78365;SDS011;67641;59.864;30.464;2023-11-21T05:06:54;12.63;;;2.85;;
78365;SDS011;67641;59.864;30.464;2023-11-21T05:09:20;12.68;;;3.00;;
78365;SDS011;67641;59.864;30.464;2023-11-21T05:11:47;14.25;;;3.08;;
78365;SDS011;67641;59.864;30.464;2023-11-21T05:14:13;13.65;;;4.28;;
78365;SDS011;67641;59.864;30.464;2023-11-21T05:16:40;16.00;;;3.50;;
78365;SDS011;67641;59.864;30.464;2023-11-21T05:19:06;8.80;;;3.40;;
78365;SDS011;67641;59.864;30.464;2023-11-21T05:21:32;14.70;;;3.05;;
78365;SDS011;67641;59.864;30.464;2023-11-21T05:23:58;17.13;;;3.72;;
78365;SDS011;67641;59.864;30.464;2023-11-21T05:26:24;16.88;;;3.63;;
78365;SDS011;67641;59.864;30.464;2023-11-21T05:28:50;15.70;;;2.90;;
78365;SDS011;67641;59.864;30.464;2023-11-21T05:31:16;12.32;;;3.30;;
78365;SDS011;67641;59.864;30.464;2023-11-21T05:33:42;16.20;;;3.63;;
78365;SDS011;67641;59.864;30.464;2023-11-21T05:36:09;14.23;;;3.25;;
78365;SDS011;67641;59.864;30.464;2023-11-21T05:38:35;16.05;;;3.20;;
78365;SDS011;67641;59.864;30.464;2023-11-21T05:41:02;18.73;;;3.53;;
78365;SDS011;67641;59.864;30.464;2023-11-21T05:43:30;15.98;;;2.85;;
78365;SDS011;67641;59.864;30.464;2023-11-21T05:45:57;15.50;;;3.08;;
78365;SDS011;67641;59.864;30.464;2023-11-21T05:48:24;18.60;;;3.20;;
78365;SDS011;67641;59.864;30.464;2023-11-21T05:50:51;14.75;;;3.05;;
78365;SDS011;67641;59.864;30.464;2023-11-21T05:53:18;15.23;;;2.95;;
78365;SDS011;67641;59.864;30.464;2023-11-21T05:55:45;14.90;;;3.22;;
78365;SDS011;67641;59.864;30.464;2023-11-21T05:58:11;18.70;;;3.92;;
78365;SDS011;67641;59.864;30.464;2023-11-21T06:00:39;19.20;;;4.10;;
78365;SDS011;67641;59.864;30.464;2023-11-21T06:03:06;40.90;;;6.13;;
78365;SDS011;67641;59.864;30.464;2023-11-21T06:05:33;61.53;;;9.18;;
78365;SDS011;67641;59.864;30.464;2023-11-21T06:08:00;64.60;;;8.25;;
78365;SDS011;67641;59.864;30.464;2023-11-21T06:10:27;33.70;;;5.75;;
78365;SDS011;67641;59.864;30.464;2023-11-21T06:12:54;25.77;;;4.57;;
78365;SDS011;67641;59.864;30.464;2023-11-21T06:15:20;25.25;;;3.97;;
78365;SDS011;67641;59.864;30.464;2023-11-21T06:17:49;30.23;;;4.03;;
78365;SDS011;67641;59.864;30.464;2023-11-21T06:20:18;22.63;;;3.85;;
78365;SDS011;67641;59.864;30.464;2023-11-21T06:22:45;18.13;;;2.60;;
78365;SDS011;67641;59.864;30.464;2023-11-21T06:25:13;10.07;;;2.28;;
78365;SDS011;67641;59.864;30.464;2023-11-21T06:27:41;9.20;;;2.28;;
78365;SDS011;67641;59.864;30.464;2023-11-21T06:30:09;12.43;;;2.00;;
78365;SDS011;67641;59.864;30.464;2023-11-21T06:32:37;13.52;;;2.13;;
78365;SDS011;67641;59.864;30.464;2023-11-21T06:35:05;10.65;;;1.90;;
78365;SDS011;67641;59.864;30.464;2023-11-21T06:37:33;9.80;;;2.15;;
78365;SDS011;67641;59.864;30.464;2023-11-21T06:40:00;8.32;;;1.98;;
78365;SDS011;67641;59.864;30.464;2023-11-21T06:42:27;12.15;;;1.92;;
78365;SDS011;67641;59.864;30.464;2023-11-21T06:44:54;9.82;;;1.63;;
78365;SDS011;67641;59.864;30.464;2023-11-21T06:47:24;18.75;;;2.13;;
78365;SDS011;67641;59.864;30.464;2023-11-21T06:49:52;7.80;;;1.70;;
78365;SDS011;67641;59.864;30.464;2023-11-21T06:52:18;7.30;;;1.55;;
78365;SDS011;67641;59.864;30.464;2023-11-21T06:54:46;12.90;;;1.98;;
78365;SDS011;67641;59.864;30.464;2023-11-21T06:57:15;9.10;;;1.55;;
78365;SDS011;67641;59.864;30.464;2023-11-21T06:59:42;6.60;;;1.40;;
78365;SDS011;67641;59.864;30.464;2023-11-21T07:02:08;6.75;;;1.60;;
78365;SDS011;67641;59.864;30.464;2023-11-21T07:04:35;7.00;;;1.40;;
78365;SDS011;67641;59.864;30.464;2023-11-21T07:07:02;6.15;;;1.30;;
78365;SDS011;67641;59.864;30.464;2023-11-21T07:09:30;5.15;;;1.20;;
78365;SDS011;67641;59.864;30.464;2023-11-21T07:11:57;2.95;;;1.00;;
78365;SDS011;67641;59.864;30.464;2023-11-21T07:14:23;4.07;;;1.15;;
78365;SDS011;67641;59.864;30.464;2023-11-21T07:16:50;6.43;;;1.30;;
78365;SDS011;67641;59.864;30.464;2023-11-21T07:19:18;4.93;;;1.10;;
78365;SDS011;67641;59.864;30.464;2023-11-21T07:21:45;6.90;;;1.50;;
78365;SDS011;67641;59.864;30.464;2023-11-21T07:24:12;5.75;;;1.35;;
78365;SDS011;67641;59.864;30.464;2023-11-21T07:26:38;9.15;;;1.50;;
78365;SDS011;67641;59.864;30.464;2023-11-21T07:29:05;7.57;;;1.50;;
78365;SDS011;67641;59.864;30.464;2023-11-21T07:31:32;6.32;;;1.42;;
78365;SDS011;67641;59.864;30.464;2023-11-21T07:34:01;10.27;;;1.77;;
78365;SDS011;67641;59.864;30.464;2023-11-21T07:36:28;6.63;;;1.10;;
78365;SDS011;67641;59.864;30.464;2023-11-21T07:38:54;4.32;;;1.40;;
78365;SDS011;67641;59.864;30.464;2023-11-21T07:41:21;6.53;;;1.80;;
78365;SDS011;67641;59.864;30.464;2023-11-21T07:43:48;5.28;;;1.63;;
78365;SDS011;67641;59.864;30.464;2023-11-21T07:46:14;6.45;;;1.33;;
78365;SDS011;67641;59.864;30.464;2023-11-21T07:48:41;6.15;;;1.48;;
78365;SDS011;67641;59.864;30.464;2023-11-21T07:51:08;5.03;;;1.15;;
78365;SDS011;67641;59.864;30.464;2023-11-21T07:53:36;6.28;;;1.40;;
78365;SDS011;67641;59.864;30.464;2023-11-21T07:56:03;5.45;;;1.20;;
78365;SDS011;67641;59.864;30.464;2023-11-21T07:58:30;3.80;;;1.20;;
78365;SDS011;67641;59.864;30.464;2023-11-21T08:00:59;5.38;;;1.25;;
78365;SDS011;67641;59.864;30.464;2023-11-21T08:03:26;3.75;;;1.00;;
78365;SDS011;67641;59.864;30.464;2023-11-21T08:05:53;9.65;;;1.15;;
78365;SDS011;67641;59.864;30.464;2023-11-21T08:08:20;4.15;;;1.10;;
78365;SDS011;67641;59.864;30.464;2023-11-21T08:10:47;5.47;;;1.15;;
78365;SDS011;67641;59.864;30.464;2023-11-21T08:13:14;5.68;;;1.10;;
78365;SDS011;67641;59.864;30.464;2023-11-21T08:15:42;6.72;;;1.20;;
78365;SDS011;67641;59.864;30.464;2023-11-21T08:23:05;5.82;;;1.42;;
78365;SDS011;67641;59.864;30.464;2023-11-21T08:25:32;3.75;;;0.90;;
78365;SDS011;67641;59.864;30.464;2023-11-21T08:28:00;5.75;;;1.52;;
78365;SDS011;67641;59.864;30.464;2023-11-21T08:30:27;5.47;;;1.13;;
78365;SDS011;67641;59.864;30.464;2023-11-21T08:32:55;5.47;;;1.13;;
78365;SDS011;67641;59.864;30.464;2023-11-21T08:35:24;4.53;;;0.88;;
78365;SDS011;67641;59.864;30.464;2023-11-21T08:37:51;3.50;;;1.05;;
78365;SDS011;67641;59.864;30.464;2023-11-21T08:40:21;3.75;;;0.90;;
78365;SDS011;67641;59.864;30.464;2023-11-21T08:42:47;3.38;;;0.90;;
78365;SDS011;67641;59.864;30.464;2023-11-21T08:45:14;4.43;;;1.02;;
78365;SDS011;67641;59.864;30.464;2023-11-21T08:50:13;3.63;;;0.82;;
78365;SDS011;67641;59.864;30.464;2023-11-21T08:52:40;3.53;;;0.90;;
78365;SDS011;67641;59.864;30.464;2023-11-21T08:55:08;4.75;;;1.02;;
78365;SDS011;67641;59.864;30.464;2023-11-21T08:57:37;6.03;;;0.90;;
78365;SDS011;67641;59.864;30.464;2023-11-21T09:00:04;3.38;;;0.70;;
78365;SDS011;67641;59.864;30.464;2023-11-21T09:02:38;4.80;;;0.93;;
78365;SDS011;67641;59.864;30.464;2023-11-21T09:05:07;5.75;;;0.75;;
78365;SDS011;67641;59.864;30.464;2023-11-21T09:07:35;4.70;;;0.75;;
78365;SDS011;67641;59.864;30.464;2023-11-21T09:10:02;2.90;;;0.80;;
78365;SDS011;67641;59.864;30.464;2023-11-21T09:12:29;2.88;;;0.93;;
78365;SDS011;67641;59.864;30.464;2023-11-21T09:14:58;2.80;;;1.00;;
78365;SDS011;67641;59.864;30.464;2023-11-21T09:17:24;3.03;;;1.02;;
78365;SDS011;67641;59.864;30.464;2023-11-21T09:19:50;3.70;;;0.90;;
78365;SDS011;67641;59.864;30.464;2023-11-21T09:22:17;7.55;;;1.08;;
78365;SDS011;67641;59.864;30.464;2023-11-21T09:24:43;3.55;;;1.00;;
78365;SDS011;67641;59.864;30.464;2023-11-21T09:27:10;3.28;;;0.70;;
78365;SDS011;67641;59.864;30.464;2023-11-21T09:29:36;4.07;;;0.90;;
78365;SDS011;67641;59.864;30.464;2023-11-21T09:32:05;2.47;;;0.70;;
78365;SDS011;67641;59.864;30.464;2023-11-21T09:34:34;4.72;;;0.80;;
78365;SDS011;67641;59.864;30.464;2023-11-21T09:37:06;3.38;;;0.90;;
78365;SDS011;67641;59.864;30.464;2023-11-21T09:39:34;5.30;;;0.95;;
78365;SDS011;67641;59.864;30.464;2023-11-21T09:44:47;5.25;;;0.77;;
78365;SDS011;67641;59.864;30.464;2023-11-21T09:47:21;2.90;;;0.82;;
78365;SDS011;67641;59.864;30.464;2023-11-21T09:49:48;2.05;;;0.68;;
78365;SDS011;67641;59.864;30.464;2023-11-21T09:52:22;2.65;;;0.90;;
78365;SDS011;67641;59.864;30.464;2023-11-21T09:54:51;8.32;;;1.15;;
78365;SDS011;67641;59.864;30.464;2023-11-21T09:57:21;6.30;;;0.90;;
78365;SDS011;67641;59.864;30.464;2023-11-21T09:59:52;4.57;;;0.88;;
78365;SDS011;67641;59.864;30.464;2023-11-21T10:02:27;4.82;;;0.80;;
78365;SDS011;67641;59.864;30.464;2023-11-21T10:04:56;3.55;;;0.95;;
78365;SDS011;67641;59.864;30.464;2023-11-21T10:07:23;5.53;;;0.70;;
78365;SDS011;67641;59.864;30.464;2023-11-21T10:09:50;7.05;;;0.75;;
78365;SDS011;67641;59.864;30.464;2023-11-21T10:12:17;4.03;;;0.73;;
78365;SDS011;67641;59.864;30.464;2023-11-21T10:14:46;4.35;;;0.98;;
78365;SDS011;67641;59.864;30.464;2023-11-21T10:17:15;5.32;;;0.95;;
78365;SDS011;67641;59.864;30.464;2023-11-21T10:19:45;2.78;;;0.80;;
78365;SDS011;67641;59.864;30.464;2023-11-21T10:22:16;4.07;;;0.80;;
78365;SDS011;67641;59.864;30.464;2023-11-21T10:24:42;5.07;;;0.82;;
78365;SDS011;67641;59.864;30.464;2023-11-21T10:27:09;3.28;;;0.75;;
78365;SDS011;67641;59.864;30.464;2023-11-21T10:29:35;2.92;;;0.90;;
78365;SDS011;67641;59.864;30.464;2023-11-21T10:32:02;3.35;;;0.82;;
78365;SDS011;67641;59.864;30.464;2023-11-21T10:34:29;4.72;;;0.80;;
78365;SDS011;67641;59.864;30.464;2023-11-21T10:36:55;4.93;;;1.92;;
78365;SDS011;67641;59.864;30.464;2023-11-21T10:39:23;2.28;;;0.45;;
78365;SDS011;67641;59.864;30.464;2023-11-21T10:41:54;3.22;;;1.00;;
78365;SDS011;67641;59.864;30.464;2023-11-21T10:44:21;2.95;;;0.90;;
78365;SDS011;67641;59.864;30.464;2023-11-21T10:46:53;3.38;;;0.93;;
78365;SDS011;67641;59.864;30.464;2023-11-21T10:49:24;5.45;;;0.80;;
78365;SDS011;67641;59.864;30.464;2023-11-21T10:51:52;3.40;;;0.80;;
78365;SDS011;67641;59.864;30.464;2023-11-21T10:54:20;2.60;;;0.70;;
78365;SDS011;67641;59.864;30.464;2023-11-21T10:57:06;2.28;;;0.70;;
78365;SDS011;67641;59.864;30.464;2023-11-21T10:59:33;1.83;;;0.60;;
78365;SDS011;67641;59.864;30.464;2023-11-21T11:02:01;2.30;;;0.50;;
78365;SDS011;67641;59.864;30.464;2023-11-21T11:04:33;3.70;;;1.00;;
78365;SDS011;67641;59.864;30.464;2023-11-21T11:07:03;4.10;;;0.95;;
78365;SDS011;67641;59.864;30.464;2023-11-21T11:09:35;2.10;;;0.57;;
78365;SDS011;67641;59.864;30.464;2023-11-21T11:12:02;4.05;;;0.95;;
78365;SDS011;67641;59.864;30.464;2023-11-21T11:14:32;2.00;;;0.60;;
78365;SDS011;67641;59.864;30.464;2023-11-21T11:16:59;7.13;;;2.45;;
78365;SDS011;67641;59.864;30.464;2023-11-21T11:19:27;2.53;;;0.82;;
78365;SDS011;67641;59.864;30.464;2023-11-21T11:24:28;3.83;;;0.68;;
78365;SDS011;67641;59.864;30.464;2023-11-21T11:35:34;5.78;;;1.10;;
78365;SDS011;67641;59.864;30.464;2023-11-21T11:38:07;2.38;;;0.73;;
78365;SDS011;67641;59.864;30.464;2023-11-21T11:40:40;3.38;;;0.88;;
78365;SDS011;67641;59.864;30.464;2023-11-21T11:43:10;4.78;;;0.93;;
78365;SDS011;67641;59.864;30.464;2023-11-21T11:45:37;3.38;;;0.85;;
78365;SDS011;67641;59.864;30.464;2023-11-21T11:48:08;4.22;;;0.90;;
78365;SDS011;67641;59.864;30.464;2023-11-21T11:50:42;4.68;;;0.80;;
78365;SDS011;67641;59.864;30.464;2023-11-21T11:53:37;3.72;;;0.70;;
78365;SDS011;67641;59.864;30.464;2023-11-21T11:59:09;3.22;;;0.85;;
78365;SDS011;67641;59.864;30.464;2023-11-21T12:01:35;4.40;;;1.08;;
78365;SDS011;67641;59.864;30.464;2023-11-21T12:06:43;3.55;;;1.00;;
78365;SDS011;67641;59.864;30.464;2023-11-21T12:09:17;2.92;;;0.80;;
78365;SDS011;67641;59.864;30.464;2023-11-21T12:11:45;2.85;;;0.80;;
78365;SDS011;67641;59.864;30.464;2023-11-21T12:14:12;3.25;;;0.93;;
78365;SDS011;67641;59.864;30.464;2023-11-21T12:16:39;3.78;;;1.00;;
78365;SDS011;67641;59.864;30.464;2023-11-21T12:19:05;4.45;;;1.35;;
78365;SDS011;67641;59.864;30.464;2023-11-21T12:21:32;4.50;;;1.00;;
78365;SDS011;67641;59.864;30.464;2023-11-21T12:23:58;7.18;;;1.30;;
78365;SDS011;67641;59.864;30.464;2023-11-21T12:26:24;5.40;;;1.23;;
78365;SDS011;67641;59.864;30.464;2023-11-21T12:28:54;2.53;;;0.70;;
78365;SDS011;67641;59.864;30.464;2023-11-21T12:31:23;4.40;;;0.88;;
78365;SDS011;67641;59.864;30.464;2023-11-21T12:33:49;4.25;;;1.02;;
78365;SDS011;67641;59.864;30.464;2023-11-21T12:36:16;3.03;;;1.10;;
78365;SDS011;67641;59.864;30.464;2023-11-21T12:38:42;3.05;;;0.90;;
78365;SDS011;67641;59.864;30.464;2023-11-21T12:41:12;4.30;;;1.10;;
78365;SDS011;67641;59.864;30.464;2023-11-21T12:43:38;3.53;;;1.00;;
78365;SDS011;67641;59.864;30.464;2023-11-21T12:46:09;3.22;;;1.00;;
78365;SDS011;67641;59.864;30.464;2023-11-21T12:48:37;3.53;;;1.23;;
78365;SDS011;67641;59.864;30.464;2023-11-21T12:51:08;4.15;;;1.10;;
78365;SDS011;67641;59.864;30.464;2023-11-21T12:53:35;8.27;;;1.88;;
78365;SDS011;67641;59.864;30.464;2023-11-21T12:56:07;5.22;;;1.30;;
78365;SDS011;67641;59.864;30.464;2023-11-21T12:58:39;6.18;;;1.20;;
78365;SDS011;67641;59.864;30.464;2023-11-21T13:01:12;2.35;;;1.27;;
78365;SDS011;67641;59.864;30.464;2023-11-21T13:03:45;5.07;;;1.35;;
78365;SDS011;67641;59.864;30.464;2023-11-21T13:06:17;3.72;;;1.40;;
78365;SDS011;67641;59.864;30.464;2023-11-21T13:08:45;2.47;;;0.85;;
78365;SDS011;67641;59.864;30.464;2023-11-21T13:11:12;3.90;;;1.42;;
78365;SDS011;67641;59.864;30.464;2023-11-21T13:13:40;4.50;;;0.95;;
78365;SDS011;67641;59.864;30.464;2023-11-21T13:18:35;5.28;;;1.00;;
78365;SDS011;67641;59.864;30.464;2023-11-21T13:21:04;3.38;;;0.77;;
78365;SDS011;67641;59.864;30.464;2023-11-21T13:23:37;2.25;;;0.70;;
78365;SDS011;67641;59.864;30.464;2023-11-21T13:26:04;3.92;;;1.00;;
78365;SDS011;67641;59.864;30.464;2023-11-21T13:28:31;3.58;;;1.23;;
78365;SDS011;67641;59.864;30.464;2023-11-21T13:30:59;4.03;;;0.88;;
78365;SDS011;67641;59.864;30.464;2023-11-21T13:33:29;2.17;;;0.70;;
78365;SDS011;67641;59.864;30.464;2023-11-21T13:35:58;2.67;;;1.00;;
78365;SDS011;67641;59.864;30.464;2023-11-21T13:38:26;3.40;;;0.80;;
78365;SDS011;67641;59.864;30.464;2023-11-21T13:40:57;2.15;;;0.70;;
78365;SDS011;67641;59.864;30.464;2023-11-21T13:43:24;7.90;;;0.90;;
78365;SDS011;67641;59.864;30.464;2023-11-21T13:45:52;4.32;;;0.73;;
78365;SDS011;67641;59.864;30.464;2023-11-21T13:48:41;3.35;;;0.98;;
78365;SDS011;67641;59.864;30.464;2023-11-21T13:51:08;2.50;;;0.80;;
78365;SDS011;67641;59.864;30.464;2023-11-21T13:53:44;3.92;;;0.80;;
78365;SDS011;67641;59.864;30.464;2023-11-21T13:56:15;2.90;;;0.93;;
78365;SDS011;67641;59.864;30.464;2023-11-21T13:58:45;2.95;;;0.75;;
78365;SDS011;67641;59.864;30.464;2023-11-21T14:01:18;3.17;;;0.85;;
78365;SDS011;67641;59.864;30.464;2023-11-21T14:04:09;3.97;;;0.93;;
78365;SDS011;67641;59.864;30.464;2023-11-21T14:09:21;4.07;;;0.82;;
78365;SDS011;67641;59.864;30.464;2023-11-21T14:11:55;4.82;;;1.50;;
78365;SDS011;67641;59.864;30.464;2023-11-21T14:14:23;2.35;;;0.63;;
78365;SDS011;67641;59.864;30.464;2023-11-21T14:16:53;7.50;;;1.00;;
78365;SDS011;67641;59.864;30.464;2023-11-21T14:19:24;2.17;;;0.70;;
78365;SDS011;67641;59.864;30.464;2023-11-21T14:21:58;8.48;;;0.93;;
78365;SDS011;67641;59.864;30.464;2023-11-21T14:24:25;1.80;;;0.90;;
78365;SDS011;67641;59.864;30.464;2023-11-21T14:26:52;3.88;;;0.80;;
78365;SDS011;67641;59.864;30.464;2023-11-21T14:29:19;3.53;;;0.90;;
78365;SDS011;67641;59.864;30.464;2023-11-21T14:31:48;1.85;;;0.80;;
78365;SDS011;67641;59.864;30.464;2023-11-21T14:34:16;3.13;;;0.77;;
78365;SDS011;67641;59.864;30.464;2023-11-21T14:36:44;5.50;;;0.90;;
78365;SDS011;67641;59.864;30.464;2023-11-21T14:39:11;3.85;;;1.00;;
78365;SDS011;67641;59.864;30.464;2023-11-21T14:41:49;3.63;;;1.02;;
78365;SDS011;67641;59.864;30.464;2023-11-21T14:44:16;4.88;;;0.85;;
78365;SDS011;67641;59.864;30.464;2023-11-21T14:46:43;4.50;;;0.85;;
78365;SDS011;67641;59.864;30.464;2023-11-21T14:49:15;3.70;;;0.80;;
78365;SDS011;67641;59.864;30.464;2023-11-21T14:51:50;11.55;;;1.45;;
78365;SDS011;67641;59.864;30.464;2023-11-21T14:54:28;10.02;;;1.75;;
78365;SDS011;67641;59.864;30.464;2023-11-21T14:57:21;10.02;;;1.95;;
78365;SDS011;67641;59.864;30.464;2023-11-21T14:59:48;8.57;;;1.17;;
78365;SDS011;67641;59.864;30.464;2023-11-21T15:02:17;9.80;;;1.58;;
78365;SDS011;67641;59.864;30.464;2023-11-21T15:04:48;6.45;;;1.42;;
78365;SDS011;67641;59.864;30.464;2023-11-21T15:07:18;8.48;;;1.38;;
78365;SDS011;67641;59.864;30.464;2023-11-21T15:09:45;6.53;;;1.40;;
78365;SDS011;67641;59.864;30.464;2023-11-21T15:12:11;9.45;;;1.65;;
78365;SDS011;67641;59.864;30.464;2023-11-21T15:14:52;7.13;;;1.42;;
78365;SDS011;67641;59.864;30.464;2023-11-21T15:17:21;6.45;;;1.55;;